KTOL/TOL METAR and TAF weather

Enter ICAO airport designator
Station Type Date Time Source
KTOL METAR 2020/04/03 23:52 UTC NOAA

KTOL 032352Z 03006KT 10SM CLR 17/M06 A3001 RMK AO2 SLP162 T01671061 10194 20167 56005 $


Station Type Date Time Source
KTOL Decoded METAR 2020/04/03 23:52 UTC NOAA

TOLEDO EXPRESS AIRPORT, OH, United States (KTOL) 41-35N 083-48W 210M
Apr 03, 2020 - 07:52 PM EDT / 2020.04.03 2352 UTC
Wind: from the NNE (030 degrees) at 7 MPH (6 KT):0
Visibility: 10 mile(s):0
Sky conditions: clear
Temperature: 62.1 F (16.7 C)
Dew Point: 21.0 F (-6.1 C)
Relative Humidity: 20%
Pressure (altimeter): 30.01 in. Hg (1016 hPa)
Pressure tendency: 0.01 inches (0.5 hPa) lower than three hours ago
ob: KTOL 032352Z 03006KT 10SM CLR 17/M06 A3001 RMK AO2 SLP162 T01671061 10194 20167 56005
cycle: 0

Station Type Date Time Source
KTOL TAF 2020/04/03 18:36 UTC NOAA

TAF KTOL 031735Z 0318/0418 01005KT P6SM SKC
FM041400 16005KT P6SM SCT070

Example: see airport list